x

Half Moon Bay - 24nm Ssw Of San Francisco, Ca (46012) Wave Buoy

6:50pm - Wed 22nd Oct 2014 All times are PDT. -7 hours from GMT.

  • Sig Wave height 8.2ft
  • Swell Direction
  • Peak Period 12s
  • Average Period 9s
  • Wind
    4mph, 7mph gusts
  • Sea Temp 62°f
  • Air Temp 63°f
  • Sea Pressure 1016.7mb
  • Half Moon Bay - 24nm Ssw Of San Francisco, Ca
  • Half Moon Bay - 24nm Ssw Of San Francisco, Ca

More Historic Weather Station data

Upgrade to MSW Pro to gain access to the past 30 days of data for over 8000 Wavebouys and Weather Stations around the globe.

Join Pro

Comparision Forecast

View Surf forecast
   
Wed 10/22 6:50pm 8ft 12s 9s 4 7 mph 1016.7mb 62f 63f
5:50pm 8ft 11s 9s 7 9 mph 1017mb 63f 63f
4:50pm 7ft 13s 9s 7 9 mph 1017.1mb 63f 63f
3:50pm 9ft 13s 9s 7 9 mph 1016.7mb 63f 63f
2:50pm 8.5ft 12s 9s 7 9 mph 1017.1mb 63f 62f
1:50pm 7.5ft 12s 9s 2 4 mph 1017.7mb 63f 62f
12:50pm 8ft 13s 9s 4 7 mph 1018.1mb 62f 62f
11:50am 9ft 13s 9s 4 7 mph 1018.3mb 62f 62f
10:50am 9ft 13s 10s 9 11 mph 1018.4mb 62f 61f
9:50am 8ft 12s 9s 4 7 mph 1018mb 62f 61f
8:50am 9ft 11s 10s 7 9 mph 1017.9mb 61f 61f
7:50am 8ft 13s 9s 7 9 mph 1017mb 61f 61f
6:50am 8ft 13s 9s 7 9 mph 1016.8mb 61f 61f
5:50am 8ft 13s 9s 9
mph
1016.8mb 61f 61f
4:50am 9ft 13s 9s 9
mph
1016.7mb 61f 61f
3:50am 9ft 14s 9s 9
mph
1017mb 61f 61f
2:50am 9.5ft 14s 9s 7 9 mph 1017.3mb 61f 61f
1:50am 9ft 14s 8s 7 9 mph 1017mb 61f 62f
12:50am 9ft 13s 8s 11 13 mph 1017.2mb 61f 62f
Tue 10/21 11:50pm 8.5ft 13s 8s 11 13 mph 1017.2mb 62f 62f
10:50pm 9.5ft 13s 8s 11 13 mph 1017.1mb 62f 62f
9:50pm 9ft 12s 8s 11 16 mph 1017mb 62f 62f
8:50pm 10.5ft 13s 9s 13 16 mph 1016.8mb 62f 62f
7:50pm 12ft 11s 9s 13 18 mph 1016.8mb 61f 62f
6:50pm 11ft 14s 9s 16 18 mph 1016.6mb 61f 62f
5:50pm 12.5ft 14s 10s 13 18 mph 1017mb 61f 62f
4:50pm 13ft 14s 10s 13 20 mph 1017.2mb 61f 62f
3:50pm 13ft 14s 11s 16 20 mph 1017.6mb 61f 62f
2:50pm 13ft 14s 10s 16 18 mph 1017.6mb 61f 61f
1:50pm 11.5ft 14s 10s 11 16 mph 1017.9mb 61f 61f
12:50pm 12ft 14s 10s 11 13 mph 1018.6mb 61f 61f
11:50am 12ft 15s 10s 9 13 mph 1019.2mb 61f 61f
10:50am 10.5ft 11s 10s 9 11 mph 1019.2mb 61f 61f
9:50am 12ft 15s 11s 11 13 mph 1019.1mb 61f 61f
8:50am 12.5ft 16s 11s 11 13 mph 1019mb 61f 61f
7:50am 12ft 16s 11s 13 16 mph 1018.7mb 61f 61f
6:50am 12ft 15s 10s 11 13 mph 1018.2mb 61f 61f
5:50am 12.5ft 16s 10s 11 13 mph 1017.7mb 61f 61f
4:50am 12.5ft 16s 10s 11 16 mph 1018.1mb 61f 62f
3:50am 12.5ft 15s 10s 9 13 mph 1018.1mb 61f 62f
2:50am 12ft 16s 10s 9 13 mph 1018.5mb 61f 62f
1:50am 13ft 14s 10s 9 11 mph 1018mb 61f 62f
12:50am 12ft 15s 10s 9 13 mph 1017.7mb 61f 62f
Mon 10/20 11:50pm 11ft 16s 10s 11 16 mph 1017.6mb 61f 63f
10:50pm 12ft 16s 10s 11 16 mph 1017.2mb 61f 63f
9:50pm 12ft 15s 11s 11 13 mph 1016.5mb 62f 63f
8:50pm 10.5ft 16s 10s 11 13 mph 1015.9mb 62f 63f
7:50pm 11.5ft 16s 11s 11 16 mph 1016mb 62f 63f
6:50pm 11ft 16s 11s 7 9 mph 1015.5mb 62f 63f
5:50pm 12ft 15s 12s 7 11 mph 1015.1mb 62f 64f
4:50pm 10ft 11s 11s 7 9 mph 1014.9mb 62f 62f
3:50pm 11ft 16s 12s 7 9 mph 1015.3mb 62f 62f
2:50pm 11ft 16s 12s 7
mph
1015.1mb 62f 62f
1:50pm 10ft 16s 11s 4 7 mph 1014.9mb 62f 62f
12:50pm 8.5ft 16s 10s 4 7 mph 1015.1mb 62f 62f
11:50am 8ft 17s 10s 4 7 mph 1014.9mb 62f 61f
10:50am 8ft 17s 10s 11 16 mph 1015.1mb 62f 61f
9:50am 8ft 17s 10s 11 16 mph 1014.7mb 62f 60f
8:50am 8ft 17s 11s 11 13 mph 1013.8mb 62f 61f
7:50am 7ft 17s 10s 13 16 mph 1012.5mb 62f 62f
6:50am 6.5ft 17s 10s 13 16 mph 1012.4mb 62f 62f
5:50am 6ft 19s 10s 13 16 mph 1012.2mb 62f 62f
4:50am 6ft 19s 10s 9 11 mph 1012.2mb 62f 62f
3:50am 6ft 19s 10s 9 11 mph 1012.3mb 62f 62f
2:50am 5ft 19s 9s 7 9 mph 1012.8mb 62f 62f
1:50am 5ft 10s 9s 9 11 mph 1012.7mb 62f 62f
12:50am 5ft 19s 9s 7 9 mph 1012.6mb 62f 62f
Sun 10/19 11:50pm 5ft 19s 9s 7 9 mph 1012.5mb 62f 62f
10:50pm 5ft 19s 9s 7
mph
1012.4mb 62f 62f
8:50pm 5ft 19s 9s 7
mph
1012mb 63f 62f
7:50pm 5ft 11s 8s 4 7 mph 1011.8mb 63f 62f
6:50pm 5ft 11s 8s 4 7 mph 1011.3mb 64f 62f
5:50pm 5ft 9s 8s 2 4 mph 1011.3mb 65f 64f
4:50pm 5ft 11s 8s  -  2 mph 1011.4mb 65f 64f
3:50pm 5ft 10s 8s 2
mph
1011.8mb 65f 63f
2:50pm 5ft 9s 8s 2 4 mph 1012.1mb 64f 63f
1:50pm 5.5ft 11s 8s 4
mph
1012.5mb 64f 63f
12:50pm 5ft 11s 8s  -  2 mph 1013.1mb 63f 63f
11:50am 6ft 10s 9s 2 4 mph 1013.4mb 62f 61f
10:50am 5.5ft 9s 8s 4
mph
1013.2mb 62f 61f
9:50am 6ft 11s 9s 4 7 mph 1013mb 63f 61f
8:50am 6ft 11s 9s 2
mph
1012.7mb 63f 62f
7:50am 6ft 11s 8s 2 4 mph 1012.3mb 62f 62f
6:50am 5.5ft 11s 8s 7 9 mph 1012.2mb 62f 61f
5:50am 6.5ft 11s 9s 7 9 mph 1012mb 62f 61f
4:50am 5.5ft 11s 8s 7 9 mph 1011.6mb 62f 59f
3:50am 5.5ft 11s 8s 2 7 mph 1011.6mb 62f 59f